Portada
METAR-TAF:

METAR-TAF

Aeropuertos :

Gwadar, Pakistán

latitud: 25-13-59N, longitud: 062-19-46E, altitud: 29 m

METAR: falta

Hora: 01:46 (20:46 UTC)

Pronóstico

El informe se hizo hace 4 horas y 46 minutos, a las 16:00 UTC
Pronóstico válido del 16 a las 18 UTC al 17 a las 18 UTC
Viento 5 kt del oeste
Visibilidad: 2500 m
Nubes dispersas a una altura de 2000 ft
humo
A partir de las UTC
Viento 10 kt del oeste-suroeste con ráfagas de 20 kt
Visibilidad: 6000 m
Nubes dispersas a una altura de 3000 ft

TAF: OPGD 161600Z 1618/1718 26005KT 2500 FU SCT020 FM 170600Z 24010G20KT 6000 SCT030

Observaciones y pronósticos meteorológicos de más de 4000 aeropuertos (mensajes METAR y TAF).

Los puntos amarillos y rojos representan las estaciones disponibles.

Ponga el ratón en el punto deseado para ver el nombre de la estación.

Haga clic para ver las observaciones y los pronósticos meteorológicos.

Para cambiar el mapa : haga clic en los botones verdes con una cruz de color negro para hacer un zoom, en el botón verde con un guión para alejar o en las flechas verdes para mapas adyacentes.


METAR-TAF: